Time;durP1;ratioP1;P1;durP2;ratioP2;P2;SDS_P1;SDS_P2;PMS_P1;PMS_P2;Temp;Humidity;BMP_temperature;BMP_pressure;BME280_temperature;BME280_humidity;BME280_pressure;Samples;Min_cycle;Max_cycle;Signal;HPM_P1;HPM_P2
2022/02/13 00:00:59;;;;;;;3.53;1.25;;;;;;;-0.02;43.37;101689.88;4963705;28;20038;-73
2022/02/13 00:03:25;;;;;;;5.68;1.45;;;;;;;-0.17;43.47;101681.09;4942690;28;20047;-73
2022/02/13 00:05:53;;;;;;;3.97;1.67;;;;;;;-0.47;44.26;101680.53;4965332;28;20038;-72
2022/02/13 00:08:23;;;;;;;9.23;2.10;;;;;;;-0.52;44.33;101670.16;4949640;28;20049;-73
2022/02/13 00:10:51;;;;;;;3.85;1.65;;;;;;;-0.47;44.34;101680.53;4980552;28;20030;-73
2022/02/13 00:13:23;;;;;;;6.10;1.58;;;;;;;-0.42;44.16;101677.19;4952841;28;20043;-72
2022/02/13 00:15:51;;;;;;;5.07;1.58;;;;;;;-0.95;44.93;101671.00;4954766;28;20516;-72
2022/02/13 00:18:21;;;;;;;5.47;1.67;;;;;;;-0.11;43.36;101662.31;4950431;28;20489;-72
2022/02/13 00:20:47;;;;;;;4.30;1.83;;;;;;;-0.50;44.42;101662.47;4949339;28;20043;-72
2022/02/13 00:23:13;;;;;;;8.55;1.90;;;;;;;-0.49;44.53;101656.50;4972549;28;20094;-73
2022/02/13 00:25:38;;;;;;;5.78;1.83;;;;;;;-0.50;44.29;101654.78;4948263;28;20050;-73
2022/02/13 00:28:12;;;;;;;3.40;1.70;;;;;;;-0.25;43.95;101646.69;4950195;28;20544;-72
2022/02/13 00:30:46;;;;;;;3.33;1.23;;;;;;;-0.61;44.71;101644.31;4951838;28;20031;-72
2022/02/13 00:33:15;;;;;;;6.88;1.77;;;;;;;-0.79;44.71;101638.00;4956972;28;20047;-72
2022/02/13 00:35:41;;;;;;;5.72;2.10;;;;;;;-0.88;45.35;101636.97;4948566;28;20027;-72
2022/02/13 00:38:12;;;;;;;7.20;2.33;;;;;;;-0.42;44.23;101635.22;4943102;28;20043;-73
2022/02/13 00:40:38;;;;;;;5.53;1.80;;;;;;;-0.63;44.62;101634.00;4979902;28;20413;-72
2022/02/13 00:43:04;;;;;;;6.40;2.13;;;;;;;-0.47;44.52;101642.00;4980510;28;20039;-73
2022/02/13 00:45:30;;;;;;;7.05;1.88;;;;;;;-0.61;44.77;101632.34;4954056;28;20039;-72
2022/02/13 00:47:55;;;;;;;3.78;1.63;;;;;;;-1.04;45.59;101626.38;4948838;28;20050;-71
2022/02/13 00:50:20;;;;;;;3.85;1.90;;;;;;;-0.73;45.23;101616.69;4949461;28;20500;-71
2022/02/13 00:52:46;;;;;;;8.50;2.40;;;;;;;-0.68;44.90;101612.53;4947930;28;20176;-70
2022/02/13 00:55:11;;;;;;;4.82;1.67;;;;;;;-0.94;45.30;101604.31;4981124;28;20093;-71
2022/02/13 00:57:39;;;;;;;10.95;2.63;;;;;;;-0.85;45.28;101596.81;4955383;28;20065;-71
2022/02/13 01:00:10;;;;;;;3.10;1.52;;;;;;;-1.59;46.39;101590.16;4963059;28;20069;-70
2022/02/13 01:02:38;;;;;;;4.30;2.08;;;;;;;-1.23;46.08;101599.44;4948800;28;20865;-72
2022/02/13 01:05:06;;;;;;;3.50;1.67;;;;;;;-0.71;44.77;101602.19;4950372;28;20047;-72
2022/02/13 01:07:31;;;;;;;6.47;2.03;;;;;;;-0.72;44.93;101608.16;4947998;28;20038;-72
2022/02/13 01:10:00;;;;;;;5.22;1.88;;;;;;;-0.75;44.79;101602.97;4950613;28;20025;-72
2022/02/13 01:12:25;;;;;;;6.40;1.90;;;;;;;-0.58;44.53;101596.44;4946538;28;20412;-72
2022/02/13 01:14:51;;;;;;;6.68;1.95;;;;;;;-0.65;44.80;101592.03;4949104;28;20194;-72
2022/02/13 01:17:17;;;;;;;10.07;1.98;;;;;;;-0.85;45.36;101588.25;4949082;28;20042;-73
2022/02/13 01:19:46;;;;;;;11.00;2.20;;;;;;;-0.95;45.50;101576.06;4956152;28;20042;-72
2022/02/13 01:22:12;;;;;;;3.50;1.48;;;;;;;-1.09;45.98;101584.31;4950592;28;20039;-72
2022/02/13 01:24:37;;;;;;;9.68;1.85;;;;;;;-1.24;46.06;101576.31;4958367;28;20038;-72
2022/02/13 01:27:05;;;;;;;6.25;1.45;;;;;;;-0.87;45.21;101577.09;4974283;28;20407;-72
2022/02/13 01:29:30;;;;;;;5.18;1.88;;;;;;;-1.01;45.60;101569.13;4966983;28;20033;-71
2022/02/13 01:31:56;;;;;;;7.22;1.70;;;;;;;-0.90;45.75;101566.78;4969012;28;20507;-72
2022/02/13 01:34:22;;;;;;;5.93;1.77;;;;;;;-0.77;45.09;101563.59;4967030;28;20401;-72
2022/02/13 01:36:50;;;;;;;12.63;2.33;;;;;;;-0.80;45.32;101563.53;4968477;28;20530;-72
2022/02/13 01:39:18;;;;;;;5.35;1.10;;;;;;;-0.74;45.07;101548.22;4970811;28;20395;-72
2022/02/13 01:41:55;;;;;;;7.45;2.38;;;;;;;-1.20;45.92;101542.19;4971682;28;20313;-72
2022/02/13 01:44:31;;;;;;;5.55;2.08;;;;;;;-1.37;46.54;101534.19;4968793;28;20033;-73
2022/02/13 01:47:02;;;;;;;5.28;1.67;;;;;;;-1.17;46.26;101529.47;4994780;28;20049;-72
2022/02/13 01:49:28;;;;;;;9.90;2.13;;;;;;;-0.87;45.58;101518.91;4966615;28;20065;-72
2022/02/13 01:51:56;;;;;;;7.03;2.13;;;;;;;-0.81;45.52;101531.84;4962668;28;20441;-73
2022/02/13 01:54:24;;;;;;;6.15;2.40;;;;;;;-0.87;45.50;101521.47;4948984;28;20094;-72
2022/02/13 01:56:50;;;;;;;5.00;1.65;;;;;;;-0.97;45.65;101505.06;4950795;28;20030;-72
2022/02/13 01:59:16;;;;;;;8.63;1.95;;;;;;;-1.17;46.19;101501.25;4978658;28;20709;-72
2022/02/13 02:01:41;;;;;;;5.40;1.52;;;;;;;-1.30;46.86;101494.16;4947415;28;20090;-73
2022/02/13 02:04:11;;;;;;;8.23;1.90;;;;;;;-0.81;45.41;101479.66;4934794;28;20073;-72
2022/02/13 02:06:39;;;;;;;5.20;1.42;;;;;;;-1.21;46.45;101489.19;4941859;28;20064;-74
2022/02/13 02:09:05;;;;;;;3.85;1.77;;;;;;;-1.31;46.20;101488.13;4962905;28;20050;-73
2022/02/13 02:11:31;;;;;;;6.13;2.22;;;;;;;-0.92;45.48;101488.88;4951473;28;20035;-74
2022/02/13 02:13:57;;;;;;;9.63;2.63;;;;;;;-1.40;46.81;101483.72;4950148;28;20050;-73
2022/02/13 02:16:22;;;;;;;6.40;1.80;;;;;;;-0.84;45.67;101488.19;4949341;28;20031;-73
2022/02/13 02:18:49;;;;;;;6.38;2.40;;;;;;;-0.86;45.64;101488.97;4961615;28;20093;-73
2022/02/13 02:21:14;;;;;;;9.85;1.90;;;;;;;-0.78;44.94;101487.41;4950551;28;20031;-74
2022/02/13 02:23:40;;;;;;;7.32;1.88;;;;;;;-1.25;46.59;101485.69;4963421;28;20066;-73
2022/02/13 02:26:07;;;;;;;7.63;1.85;;;;;;;-0.85;45.52;101489.00;4950006;28;20492;-73
2022/02/13 02:28:35;;;;;;;10.90;2.15;;;;;;;-0.94;45.88;101482.84;4945290;28;20285;-73
2022/02/13 02:31:03;;;;;;;11.40;2.15;;;;;;;-0.90;45.69;101471.81;4979388;28;20028;-73
2022/02/13 02:33:30;;;;;;;6.55;1.60;;;;;;;-1.50;47.25;101457.84;4944137;28;20512;-73
2022/02/13 02:35:56;;;;;;;11.25;2.38;;;;;;;-1.05;46.24;101452.72;4938695;28;20050;-73
2022/02/13 02:38:22;;;;;;;10.18;2.47;;;;;;;-0.92;45.83;101455.53;4937791;28;20051;-73
2022/02/13 02:40:48;;;;;;;6.78;2.42;;;;;;;-1.19;46.53;101449.03;4963806;28;20039;-73
2022/02/13 02:43:15;;;;;;;13.02;2.25;;;;;;;-1.76;47.64;101449.66;4979258;28;20031;-73
2022/02/13 02:45:46;;;;;;;6.82;2.40;;;;;;;-1.32;46.79;101447.09;4947615;28;20071;-73
2022/02/13 02:48:12;;;;;;;13.50;3.17;;;;;;;-1.11;46.81;101454.28;4943709;28;20043;-73
2022/02/13 02:50:42;;;;;;;11.10;1.65;;;;;;;-1.27;46.93;101450.59;4946425;28;20031;-72
2022/02/13 02:53:07;;;;;;;6.38;2.50;;;;;;;-1.40;47.19;101442.69;4979060;28;20047;-73
2022/02/13 02:55:36;;;;;;;5.25;2.05;;;;;;;-1.26;46.87;101435.25;4976244;28;20034;-73
2022/02/13 02:58:07;;;;;;;8.32;2.70;;;;;;;-1.69;47.76;101438.69;4965523;28;20039;-72
2022/02/13 03:00:35;;;;;;;11.15;2.40;;;;;;;-1.68;47.79;101435.28;4939032;28;20033;-73
2022/02/13 03:03:00;;;;;;;5.63;2.50;;;;;;;-1.31;47.30;101441.97;4935623;28;20059;-72
2022/02/13 03:05:26;;;;;;;7.60;2.65;;;;;;;-1.52;47.67;101437.31;4951213;28;20034;-72
2022/02/13 03:07:51;;;;;;;8.10;2.08;;;;;;;-1.23;46.79;101431.84;4951186;28;20475;-72
2022/02/13 03:10:19;;;;;;;5.28;2.50;;;;;;;-1.31;47.15;101428.28;4953238;28;20373;-73
2022/02/13 03:12:46;;;;;;;8.77;1.92;;;;;;;-1.32;47.14;101421.44;4953235;28;20077;-74
2022/02/13 03:15:13;;;;;;;5.70;2.72;;;;;;;-1.12;46.60;101412.38;4956856;28;20311;-73
2022/02/13 03:17:38;;;;;;;8.30;3.30;;;;;;;-1.76;48.13;101416.31;4953768;28;20460;-73
2022/02/13 03:20:09;;;;;;;12.82;3.90;;;;;;;-1.38;47.32;101404.22;4950622;28;20114;-73
2022/02/13 03:22:35;;;;;;;8.88;2.80;;;;;;;-2.18;49.37;101394.97;4950692;28;20528;-74
2022/02/13 03:25:06;;;;;;;5.32;2.28;;;;;;;-1.97;48.93;101396.28;4970738;28;20535;-73
2022/02/13 03:27:31;;;;;;;10.32;3.38;;;;;;;-1.49;47.43;101401.47;4987554;28;20146;-73
2022/02/13 03:29:57;;;;;;;7.63;2.50;;;;;;;-1.61;47.92;101403.81;4956094;28;20042;-71
2022/02/13 03:32:30;;;;;;;5.50;2.13;;;;;;;-1.28;47.09;101402.72;4971786;28;20043;-70
2022/02/13 03:34:55;;;;;;;8.23;2.40;;;;;;;-1.43;47.72;101400.72;4967446;28;20039;-70
2022/02/13 03:37:23;;;;;;;9.63;2.67;;;;;;;-1.60;48.00;101397.84;4967961;28;20121;-70
2022/02/13 03:39:48;;;;;;;8.45;3.17;;;;;;;-1.56;47.75;101404.75;4983554;28;20552;-69
2022/02/13 03:42:14;;;;;;;7.72;2.33;;;;;;;-1.20;46.95;101403.69;4969966;28;20089;-70
2022/02/13 03:44:40;;;;;;;8.93;2.45;;;;;;;-2.03;48.86;101402.13;4968491;28;20500;-69
2022/02/13 03:47:08;;;;;;;13.50;3.35;;;;;;;-1.33;47.38;101412.00;4970630;28;20042;-69
2022/02/13 03:49:34;;;;;;;8.52;3.45;;;;;;;-1.36;47.32;101399.13;4972445;28;20026;-74
2022/02/13 03:51:59;;;;;;;5.60;2.50;;;;;;;-1.69;47.67;101387.41;4976919;28;20046;-70
2022/02/13 03:54:25;;;;;;;9.52;4.60;;;;;;;-1.63;48.00;101387.53;4969592;28;20771;-71
2022/02/13 03:56:50;;;;;;;7.13;2.65;;;;;;;-2.09;49.16;101379.81;4943980;28;20404;-72
2022/02/13 03:59:21;;;;;;;13.25;4.28;;;;;;;-1.77;48.35;101369.34;4986531;28;20114;-73
2022/02/13 04:01:47;;;;;;;11.45;3.25;;;;;;;-1.72;48.09;101377.13;4970428;28;20068;-72
2022/02/13 04:04:12;;;;;;;8.57;2.90;;;;;;;-1.70;48.29;101381.44;4969752;28;20046;-73
2022/02/13 04:06:38;;;;;;;9.25;3.10;;;;;;;-1.32;47.23;101378.69;4972522;28;20511;-71
2022/02/13 04:09:06;;;;;;;5.43;3.33;;;;;;;-1.46;47.49;101383.59;4972366;28;20065;-71
2022/02/13 04:11:37;;;;;;;8.18;2.92;;;;;;;-1.62;48.24;101384.13;4969536;28;20460;-72
2022/02/13 04:14:02;;;;;;;13.23;3.22;;;;;;;-1.77;48.50;101383.88;4969273;28;20042;-71
2022/02/13 04:16:28;;;;;;;7.88;3.42;;;;;;;-1.62;48.26;101394.38;5001162;28;22074;-73
2022/02/13 04:18:53;;;;;;;7.88;3.55;;;;;;;-1.96;48.92;101401.41;4968268;28;20068;-72
2022/02/13 04:21:27;;;;;;;5.93;3.25;;;;;;;-1.55;48.26;101396.25;4969305;28;20030;-72
2022/02/13 04:23:52;;;;;;;6.35;2.80;;;;;;;-1.78;48.34;101408.59;4967339;28;20125;-72
2022/02/13 04:26:20;;;;;;;13.05;4.78;;;;;;;-1.81;48.66;101398.31;4969569;28;20053;-73
2022/02/13 04:28:46;;;;;;;10.23;3.50;;;;;;;-1.73;48.54;101401.00;4968896;28;20495;-73
2022/02/13 04:31:14;;;;;;;8.82;3.55;;;;;;;-1.82;48.58;101396.59;4970554;28;20027;-74
2022/02/13 04:33:41;;;;;;;7.57;3.67;;;;;;;-1.49;47.78;101398.03;4999992;28;20041;-73
2022/02/13 04:36:08;;;;;;;10.50;4.00;;;;;;;-1.48;47.75;101395.50;4973279;28;20578;-73
2022/02/13 04:38:34;;;;;;;8.50;3.85;;;;;;;-1.91;49.29;101388.69;4969146;28;20516;-73
2022/02/13 04:41:00;;;;;;;6.85;4.07;;;;;;;-1.95;48.92;101389.50;4967742;28;20022;-72
2022/02/13 04:43:27;;;;;;;5.15;3.08;;;;;;;-1.94;48.93;101379.25;4971469;28;20042;-72
2022/02/13 04:45:52;;;;;;;7.57;3.25;;;;;;;-1.56;48.14;101374.00;4967354;28;20038;-73
2022/02/13 04:48:18;;;;;;;6.60;3.15;;;;;;;-2.09;49.46;101371.25;4975491;28;20049;-74
2022/02/13 04:50:43;;;;;;;9.73;4.20;;;;;;;-1.50;47.96;101373.25;4969435;28;20074;-73
2022/02/13 04:53:14;;;;;;;9.35;3.75;;;;;;;-1.64;48.37;101367.88;4961058;28;20049;-71
2022/02/13 04:55:43;;;;;;;8.80;3.20;;;;;;;-1.59;48.53;101368.81;4968659;28;20042;-72
2022/02/13 04:58:09;;;;;;;12.82;4.05;;;;;;;-1.40;47.63;101376.00;4974544;28;20046;-74
2022/02/13 05:00:41;;;;;;;9.15;3.05;;;;;;;-1.68;48.32;101384.03;4986057;28;20548;-73
2022/02/13 05:03:07;;;;;;;6.10;3.80;;;;;;;-1.51;47.71;101381.75;4961082;28;20046;-74
2022/02/13 05:05:36;;;;;;;8.00;3.72;;;;;;;-1.63;47.97;101383.25;4983397;28;20041;-73
2022/02/13 05:08:02;;;;;;;4.35;3.58;;;;;;;-1.84;48.91;101370.94;4959060;28;20081;-73
2022/02/13 05:10:27;;;;;;;10.73;3.72;;;;;;;-1.52;47.70;101365.53;4956936;28;20061;-73
2022/02/13 05:12:53;;;;;;;11.23;3.25;;;;;;;-1.62;48.02;101366.19;4968806;28;20129;-71
2022/02/13 05:15:21;;;;;;;8.13;3.20;;;;;;;-2.03;48.86;101359.44;4969237;28;20031;-71
2022/02/13 05:17:47;;;;;;;7.65;3.03;;;;;;;-2.06;49.56;101355.97;4998193;28;20511;-71
2022/02/13 05:20:13;;;;;;;10.15;3.97;;;;;;;-1.96;49.18;101351.88;4968425;28;20045;-72
2022/02/13 05:22:39;;;;;;;7.00;3.70;;;;;;;-1.80;48.64;101339.41;4953428;28;20125;-72
2022/02/13 05:25:04;;;;;;;6.53;3.72;;;;;;;-1.96;49.02;101332.25;4991540;28;20044;-72
2022/02/13 05:27:30;;;;;;;9.50;4.28;;;;;;;-1.69;48.44;101331.03;4970351;28;20041;-72
2022/02/13 05:29:55;;;;;;;11.40;3.55;;;;;;;-1.73;48.53;101322.44;4968682;28;20621;-72
2022/02/13 05:32:23;;;;;;;7.78;3.20;;;;;;;-2.05;49.24;101324.38;4994818;28;20087;-72
2022/02/13 05:34:49;;;;;;;9.98;3.47;;;;;;;-2.49;50.17;101319.22;4981894;28;20070;-72
2022/02/13 05:37:14;;;;;;;6.93;3.83;;;;;;;-1.88;48.95;101311.91;4998496;28;20468;-73
2022/02/13 05:39:46;;;;;;;5.68;3.28;;;;;;;-1.59;48.40;101310.72;4974007;28;20038;-73
2022/02/13 05:42:11;;;;;;;10.38;3.92;;;;;;;-1.65;48.23;101313.16;4999952;28;20039;-73
2022/02/13 05:44:39;;;;;;;11.43;4.70;;;;;;;-1.53;47.94;101302.28;4966231;28;20038;-72
2022/02/13 05:47:06;;;;;;;8.88;4.28;;;;;;;-2.23;49.76;101302.69;4970772;28;20039;-71
2022/02/13 05:49:35;;;;;;;5.85;3.97;;;;;;;-1.81;48.96;101295.81;4973866;28;20504;-71
2022/02/13 05:52:00;;;;;;;9.43;4.80;;;;;;;-1.86;49.03;101293.16;4967441;28;20062;-72
2022/02/13 05:54:26;;;;;;;12.40;4.65;;;;;;;-1.80;48.88;101290.72;4969295;28;20065;-71
2022/02/13 05:56:53;;;;;;;7.82;3.60;;;;;;;-2.12;49.72;101295.22;4956982;28;20030;-72
2022/02/13 05:59:21;;;;;;;11.52;4.60;;;;;;;-1.99;49.31;101291.19;4982036;28;20037;-72
2022/02/13 06:01:52;;;;;;;10.13;4.30;;;;;;;-2.36;50.21;101290.47;4989755;28;20066;-74
2022/02/13 06:04:20;;;;;;;7.97;3.97;;;;;;;-1.73;48.34;101272.84;4967049;28;20528;-72
2022/02/13 06:06:51;;;;;;;6.28;3.75;;;;;;;-1.62;48.32;101271.34;4966673;28;20512;-72
2022/02/13 06:09:17;;;;;;;15.93;4.18;;;;;;;-1.82;48.64;101261.63;4967052;28;20038;-72
2022/02/13 06:11:46;;;;;;;13.15;4.43;;;;;;;-2.48;50.37;101259.53;4964301;28;20030;-72
2022/02/13 06:14:14;;;;;;;7.22;3.45;;;;;;;-1.78;49.00;101261.66;4989131;28;20551;-72
2022/02/13 06:16:44;;;;;;;7.38;3.33;;;;;;;-2.33;50.34;101259.84;4955421;28;20039;-71
2022/02/13 06:19:15;;;;;;;9.68;4.78;;;;;;;-1.99;49.01;101250.22;4982782;28;20083;-71
2022/02/13 06:21:40;;;;;;;12.50;4.03;;;;;;;-1.83;48.48;101265.00;4965781;28;20050;-72
2022/02/13 06:24:06;;;;;;;11.23;3.95;;;;;;;-1.68;48.11;101256.75;4965155;28;20038;-71
2022/02/13 06:26:34;;;;;;;6.25;3.25;;;;;;;-1.94;49.26;101253.72;4967885;28;20031;-71
2022/02/13 06:29:03;;;;;;;6.45;3.40;;;;;;;-2.16;49.84;101256.72;4998389;28;20045;-71
2022/02/13 06:31:29;;;;;;;7.78;3.40;;;;;;;-2.10;49.23;101236.34;4953425;28;20034;-73
2022/02/13 06:33:57;;;;;;;12.73;4.05;;;;;;;-1.84;48.83;101245.38;4966449;28;20065;-72
2022/02/13 06:36:22;;;;;;;8.52;4.40;;;;;;;-2.00;49.25;101248.47;4968955;28;20042;-72
2022/02/13 06:38:50;;;;;;;11.00;4.40;;;;;;;-2.29;49.69;101253.06;4986021;28;20046;-72
2022/02/13 06:41:16;;;;;;;9.90;4.40;;;;;;;-2.17;49.63;101245.63;4971069;28;20038;-73
2022/02/13 06:43:41;;;;;;;12.30;4.00;;;;;;;-2.22;49.76;101245.53;4974758;28;20049;-73
2022/02/13 06:46:07;;;;;;;6.15;3.53;;;;;;;-2.00;49.19;101238.22;4970916;28;20683;-72
2022/02/13 06:48:40;;;;;;;8.75;4.60;;;;;;;-2.24;49.89;101248.91;5003204;28;20038;-73
2022/02/13 06:51:09;;;;;;;10.20;4.38;;;;;;;-2.10;49.60;101238.91;4960756;28;20450;-76
2022/02/13 06:53:37;;;;;;;7.60;3.85;;;;;;;-1.61;48.43;101232.91;4982759;28;20054;-76
2022/02/13 06:56:03;;;;;;;6.57;3.95;;;;;;;-1.72;48.88;101231.03;4971476;28;20045;-75
2022/02/13 06:58:28;;;;;;;7.53;3.70;;;;;;;-1.68;48.53;101220.84;5001959;28;20069;-76
2022/02/13 07:00:57;;;;;;;9.80;4.65;;;;;;;-1.42;47.75;101213.56;4989703;28;20031;-75
2022/02/13 07:03:22;;;;;;;7.65;3.50;;;;;;;-1.68;48.25;101222.56;4962130;28;20050;-74
2022/02/13 07:05:50;;;;;;;8.40;3.80;;;;;;;-1.46;48.00;101218.63;4970232;28;20035;-75
2022/02/13 07:08:15;;;;;;;8.95;2.95;;;;;;;-1.31;47.17;101215.41;4972985;28;20073;-75
2022/02/13 07:10:41;;;;;;;7.13;3.75;;;;;;;-1.53;47.50;101216.78;4970643;28;20026;-75
2022/02/13 07:13:09;;;;;;;8.02;3.10;;;;;;;-1.35;47.56;101205.94;4968658;28;20045;-74
2022/02/13 07:15:41;;;;;;;12.32;3.40;;;;;;;-1.69;48.30;101195.19;4968249;28;20041;-73
2022/02/13 07:18:07;;;;;;;14.32;3.83;;;;;;;-1.47;47.92;101204.94;4970149;28;20051;-76
2022/02/13 07:20:32;;;;;;;9.88;4.05;;;;;;;-1.73;48.03;101201.97;4971656;28;20038;-74
2022/02/13 07:23:02;;;;;;;4.72;2.50;;;;;;;-1.48;48.21;101203.22;4971072;28;20388;-73
2022/02/13 07:25:28;;;;;;;8.35;3.42;;;;;;;-2.04;48.98;101210.84;4969490;28;20150;-74
2022/02/13 07:27:53;;;;;;;11.95;3.55;;;;;;;-1.46;47.76;101198.97;4967437;28;20439;-74
2022/02/13 07:30:21;;;;;;;9.48;3.85;;;;;;;-1.76;48.26;101190.81;4971239;28;20027;-74
2022/02/13 07:32:51;;;;;;;9.45;3.42;;;;;;;-1.71;48.46;101189.16;4966383;28;20046;-73
2022/02/13 07:35:24;;;;;;;7.40;3.03;;;;;;;-1.12;47.05;101185.78;5001002;28;20532;-75
2022/02/13 07:37:52;;;;;;;8.32;3.97;;;;;;;-1.61;47.44;101197.03;4969256;28;20038;-74
2022/02/13 07:40:18;;;;;;;13.50;3.88;;;;;;;-0.75;45.96;101184.56;4971754;28;20462;-75
2022/02/13 07:42:45;;;;;;;6.80;3.50;;;;;;;-0.67;45.71;101170.09;4971404;28;20042;-74
2022/02/13 07:45:11;;;;;;;7.25;2.88;;;;;;;-1.01;46.62;101173.97;4969099;28;20052;-74
2022/02/13 07:47:44;;;;;;;8.38;3.60;;;;;;;-0.68;45.42;101168.41;4999007;28;20101;-74
2022/02/13 07:50:09;;;;;;;7.05;2.55;;;;;;;-0.43;44.77;101153.25;4970783;28;20476;-74
2022/02/13 07:52:37;;;;;;;7.90;3.13;;;;;;;0.09;43.92;101171.69;4971803;28;20038;-74
2022/02/13 07:55:05;;;;;;;4.07;2.40;;;;;;;-0.20;43.97;101150.91;4970454;28;20038;-74
2022/02/13 07:57:31;;;;;;;8.65;3.53;;;;;;;-0.24;43.72;101147.44;4971856;28;20038;-74
2022/02/13 07:59:59;;;;;;;9.68;3.40;;;;;;;1.68;40.30;101138.16;4971701;28;20487;-73
2022/02/13 08:02:24;;;;;;;10.93;3.10;;;;;;;1.01;41.42;101149.13;4962146;28;20043;-74
2022/02/13 08:04:50;;;;;;;6.47;2.05;;;;;;;0.88;41.43;101145.66;4974004;28;20814;-75
2022/02/13 08:07:15;;;;;;;5.95;2.60;;;;;;;1.14;41.65;101159.47;5001256;28;20038;-74
2022/02/13 08:09:42;;;;;;;6.78;2.80;;;;;;;1.34;40.86;101157.81;4970843;28;20299;-74
2022/02/13 08:12:10;;;;;;;5.28;2.85;;;;;;;1.50;40.89;101156.16;4968814;28;20039;-74
2022/02/13 08:14:39;;;;;;;13.68;3.78;;;;;;;2.24;39.28;101146.78;4969716;28;20053;-73
2022/02/13 08:17:04;;;;;;;6.70;2.35;;;;;;;2.46;37.97;101133.84;4962676;28;20089;-74
2022/02/13 08:19:35;;;;;;;4.65;2.60;;;;;;;2.77;38.08;101143.22;4988416;28;20038;-75
2022/02/13 08:22:03;;;;;;;4.70;2.67;;;;;;;1.41;39.60;101141.53;4975303;28;20143;-75
2022/02/13 08:24:28;;;;;;;4.97;2.58;;;;;;;2.45;37.10;101137.28;4969274;28;20031;-74
2022/02/13 08:26:53;;;;;;;6.75;2.55;;;;;;;1.98;38.74;101141.63;4953952;28;20733;-73
2022/02/13 08:29:19;;;;;;;7.95;3.78;;;;;;;0.47;41.52;101145.41;4968716;28;20597;-72
2022/02/13 08:31:44;;;;;;;5.50;2.17;;;;;;;-0.29;43.58;101145.69;4970775;28;20035;-72
2022/02/13 08:34:13;;;;;;;7.68;2.83;;;;;;;0.44;42.80;101142.84;4970053;28;20039;-72
2022/02/13 08:36:41;;;;;;;8.68;3.05;;;;;;;0.87;42.22;101150.78;4968454;28;20038;-71
2022/02/13 08:39:09;;;;;;;6.93;2.60;;;;;;;0.24;43.41;101140.13;4968967;28;20738;-71
2022/02/13 08:41:38;;;;;;;7.68;2.65;;;;;;;0.47;43.07;101146.25;4969577;28;20081;-73
2022/02/13 08:44:06;;;;;;;7.55;3.00;;;;;;;0.90;41.96;101156.81;4991405;28;20034;-73
2022/02/13 08:46:34;;;;;;;7.85;3.60;;;;;;;0.11;43.71;101146.88;4998588;28;20034;-72
2022/02/13 08:49:00;;;;;;;9.32;3.83;;;;;;;-0.10;44.23;101154.41;4959531;28;20133;-73
2022/02/13 08:51:26;;;;;;;4.90;3.13;;;;;;;0.45;43.16;101147.97;4968228;28;20112;-72
2022/02/13 08:53:52;;;;;;;7.88;3.13;;;;;;;0.06;44.28;101138.28;4967032;28;20140;-72
2022/02/13 08:56:21;;;;;;;4.95;3.13;;;;;;;0.76;42.86;101144.72;4998499;28;20041;-72
2022/02/13 08:58:46;;;;;;;7.20;2.45;;;;;;;0.28;43.57;101140.16;4969105;28;20046;-72
2022/02/13 09:01:14;;;;;;;9.80;2.83;;;;;;;0.32;44.16;101138.44;4974335;28;20045;-72
2022/02/13 09:03:42;;;;;;;4.22;2.70;;;;;;;0.66;43.13;101143.81;4999466;28;20042;-72
2022/02/13 09:06:08;;;;;;;6.30;3.10;;;;;;;0.26;44.65;101146.13;4970566;28;20035;-72
2022/02/13 09:08:33;;;;;;;6.63;3.80;;;;;;;1.00;42.76;101144.84;4960125;28;20049;-72
2022/02/13 09:10:58;;;;;;;7.32;2.88;;;;;;;1.29;42.57;101141.50;4967031;28;20042;-72
2022/02/13 09:13:26;;;;;;;4.97;2.78;;;;;;;0.72;43.50;101143.84;4970848;28;20488;-72
2022/02/13 09:15:54;;;;;;;30.23;13.77;;;;;;;1.17;42.61;101147.47;4965689;28;20022;-72
2022/02/13 09:18:27;;;;;;;33.97;13.55;;;;;;;0.96;42.99;101152.53;4957815;28;20537;-72
2022/02/13 09:20:53;;;;;;;10.35;5.47;;;;;;;0.46;43.67;101141.97;4970633;28;20038;-72
2022/02/13 09:23:21;;;;;;;12.38;4.55;;;;;;;1.27;42.88;101136.34;5000991;28;20042;-72
2022/02/13 09:25:47;;;;;;;6.65;3.40;;;;;;;1.78;41.70;101135.63;4997593;28;20070;-74
2022/02/13 09:28:20;;;;;;;17.85;9.10;;;;;;;1.73;41.69;101141.63;4999726;28;20113;-71
2022/02/13 09:30:50;;;;;;;6.07;3.85;;;;;;;1.93;41.73;101133.91;4965387;28;20042;-74
2022/02/13 09:33:17;;;;;;;8.88;3.92;;;;;;;2.03;41.42;101128.75;4997476;28;20552;-73
2022/02/13 09:35:49;;;;;;;5.40;2.75;;;;;;;2.43;40.78;101131.28;4965600;28;20328;-73
2022/02/13 09:38:15;;;;;;;6.85;3.22;;;;;;;2.39;40.83;101135.56;4965022;28;20066;-74
2022/02/13 09:40:47;;;;;;;5.50;3.20;;;;;;;2.22;40.93;101125.28;4964451;28;20391;-72
2022/02/13 09:43:17;;;;;;;5.93;2.33;;;;;;;1.83;42.03;101127.00;4963863;28;20472;-72
2022/02/13 09:45:50;;;;;;;8.02;2.92;;;;;;;1.80;41.77;101126.16;4979750;28;20039;-72
2022/02/13 09:48:19;;;;;;;5.18;2.88;;;;;;;1.58;42.24;101117.56;4979175;28;20042;-75
2022/02/13 09:50:48;;;;;;;4.03;2.70;;;;;;;2.10;42.03;101109.81;4978890;28;20057;-71
2022/02/13 09:53:17;;;;;;;8.23;4.10;;;;;;;1.86;41.87;101115.84;4980677;28;20388;-71
2022/02/13 09:55:43;;;;;;;5.97;2.97;;;;;;;1.64;42.29;101118.44;4962221;28;20042;-71
2022/02/13 09:58:11;;;;;;;8.90;3.45;;;;;;;1.91;41.54;101109.84;4965683;28;20054;-73
2022/02/13 10:00:49;;;;;;;9.38;2.97;;;;;;;1.90;41.98;101115.84;4965851;28;20049;-74
2022/02/13 10:03:20;;;;;;;8.43;3.03;;;;;;;1.42;42.94;101120.09;4964906;28;20122;-72
2022/02/13 10:05:47;;;;;;;8.88;4.00;;;;;;;2.33;40.85;101092.59;4977905;28;20038;-71
2022/02/13 10:08:25;;;;;;;6.40;2.78;;;;;;;1.84;41.86;101096.94;4996508;28;20134;-72
2022/02/13 10:11:17;;;;;;;4.43;3.37;;;;;;;2.83;40.00;101093.28;4981126;28;20057;-73
2022/02/13 10:14:01;;;;;;;5.05;2.05;;;;;;;2.41;41.18;101082.25;4964237;28;20530;-71
2022/02/13 10:16:30;;;;;;;11.25;4.35;;;;;;;2.86;40.30;101095.84;4965733;28;20026;-72
2022/02/13 10:19:05;;;;;;;21.10;7.50;;;;;;;4.30;38.15;101088.81;4964300;28;20037;-75
2022/02/13 10:22:04;;;;;;;5.75;2.95;;;;;;;3.06;40.28;101074.25;4971304;28;20074;-73
2022/02/13 10:24:36;;;;;;;7.97;3.50;;;;;;;3.58;39.04;101069.63;4967436;28;20066;-72
2022/02/13 10:27:11;;;;;;;8.88;3.03;;;;;;;3.79;39.38;101058.25;4964621;28;20534;-74
2022/02/13 10:29:53;;;;;;;4.90;2.25;;;;;;;4.16;37.89;101060.50;4979594;28;20045;-74
2022/02/13 10:32:31;;;;;;;6.72;3.63;;;;;;;3.42;38.80;101062.84;4966201;28;20121;-75
2022/02/13 10:35:05;;;;;;;8.32;2.47;;;;;;;3.86;37.92;101053.88;4955283;28;20054;-72
2022/02/13 10:37:58;;;;;;;4.93;2.92;;;;;;;3.16;39.35;101061.28;4995492;28;20035;-70
2022/02/13 10:40:28;;;;;;;7.32;2.28;;;;;;;3.10;40.10;101048.38;4963083;28;20481;-73
2022/02/13 10:43:04;;;;;;;7.97;3.35;;;;;;;2.80;40.19;101053.72;4966109;28;20071;-72
2022/02/13 10:45:31;;;;;;;7.57;3.30;;;;;;;3.19;39.59;101053.50;4965259;28;20415;-71
2022/02/13 10:48:00;;;;;;;8.73;4.97;;;;;;;3.35;39.93;101040.50;4963956;28;20078;-72
2022/02/13 10:50:40;;;;;;;5.90;3.10;;;;;;;3.57;39.35;101047.22;4963261;28;20066;-72
2022/02/13 10:53:07;;;;;;;8.93;3.22;;;;;;;4.17;38.37;101033.75;4980513;28;20506;-72
2022/02/13 10:55:35;;;;;;;5.30;2.80;;;;;;;3.74;38.71;101030.75;4970921;28;20034;-71
2022/02/13 10:58:04;;;;;;;3.20;2.17;;;;;;;3.65;39.06;101028.22;4953717;28;20043;-72
2022/02/13 11:00:31;;;;;;;2.92;2.28;;;;;;;4.05;38.27;101014.91;4963422;28;20460;-72
2022/02/13 11:03:04;;;;;;;11.55;3.38;;;;;;;3.39;40.31;101013.78;4994933;28;20069;-71
2022/02/13 11:05:30;;;;;;;6.72;2.83;;;;;;;3.53;39.90;101009.34;4966247;28;20129;-72
2022/02/13 11:08:42;;;;;;;4.15;3.10;;;;;;;3.28;40.22;101012.97;4964180;28;20473;-71
2022/02/13 11:11:10;;;;;;;4.20;2.28;;;;;;;3.47;39.64;101009.41;4955044;28;20043;-71
2022/02/13 11:13:36;;;;;;;4.18;2.40;;;;;;;3.04;41.20;101001.09;4959458;28;20073;-72
2022/02/13 11:16:29;;;;;;;9.63;3.33;;;;;;;3.98;39.95;100996.88;4966152;28;20077;-71
2022/02/13 11:18:58;;;;;;;4.03;2.70;;;;;;;3.72;39.03;100978.19;4962704;28;20039;-71
2022/02/13 11:21:29;;;;;;;6.60;2.63;;;;;;;3.21;40.11;100959.66;4966622;28;20031;-71
2022/02/13 11:24:05;;;;;;;4.60;2.95;;;;;;;3.52;40.06;100976.63;4964486;28;20971;-73
2022/02/13 11:26:41;;;;;;;7.65;2.20;;;;;;;3.85;39.31;100973.72;4969126;28;20026;-70
2022/02/13 11:29:14;;;;;;;4.85;2.53;;;;;;;4.52;38.48;100966.91;4963840;28;20046;-71
2022/02/13 11:31:45;;;;;;;4.75;2.03;;;;;;;4.56;38.17;100961.66;4971200;28;20034;-71